createdAt,value
2024-05-09T00:00:55.618Z,98.55
2024-05-09T00:01:55.644Z,98.55
2024-05-09T00:02:55.634Z,98.45
2024-05-09T00:03:55.715Z,98.45
2024-05-09T00:04:55.658Z,98.45
2024-05-09T00:05:55.636Z,98.25
2024-05-09T00:06:55.543Z,98.04
2024-05-09T00:07:55.588Z,97.94
2024-05-09T00:08:55.546Z,97.94
2024-05-09T00:09:55.550Z,97.88
2024-05-09T00:10:55.624Z,97.78
2024-05-09T00:11:55.606Z,97.67
2024-05-09T00:12:55.541Z,97.67
2024-05-09T00:13:55.564Z,97.57
2024-05-09T00:14:55.509Z,97.47
2024-05-09T00:15:55.508Z,97.37
2024-05-09T00:16:55.555Z,97.37
2024-05-09T00:17:55.713Z,97.47
2024-05-09T00:18:55.623Z,97.47
2024-05-09T00:19:55.495Z,97.57
2024-05-09T00:20:55.524Z,97.57
2024-05-09T00:21:55.493Z,97.67
2024-05-09T00:22:55.514Z,97.57
2024-05-09T00:23:55.475Z,97.67
2024-05-09T00:24:55.464Z,97.62
2024-05-09T00:25:55.500Z,97.62
2024-05-09T00:26:55.453Z,97.72
2024-05-09T00:27:55.475Z,97.72
2024-05-09T00:28:55.463Z,97.72
2024-05-09T00:29:55.422Z,97.72
2024-05-09T00:30:55.418Z,97.62
2024-05-09T00:31:55.485Z,97.72
2024-05-09T00:32:55.575Z,97.72
2024-05-09T00:33:55.511Z,97.72
2024-05-09T00:34:55.443Z,97.62
2024-05-09T00:35:55.400Z,97.72
2024-05-09T00:36:55.380Z,97.72
2024-05-09T00:37:55.473Z,97.72
2024-05-09T00:38:55.389Z,97.72
2024-05-09T00:39:55.366Z,97.72
2024-05-09T00:40:55.404Z,97.82
2024-05-09T00:41:55.354Z,97.82
2024-05-09T00:42:55.356Z,97.82
2024-05-09T00:43:55.410Z,97.97
2024-05-09T00:44:55.358Z,97.97
2024-05-09T00:45:55.344Z,97.97
2024-05-09T00:46:55.456Z,97.97
2024-05-09T00:47:55.452Z,97.87
2024-05-09T00:48:55.547Z,97.87
2024-05-09T00:49:55.390Z,97.77
2024-05-09T00:50:55.339Z,97.77
2024-05-09T00:51:55.319Z,97.66
2024-05-09T00:52:55.342Z,97.66
2024-05-09T00:53:55.288Z,97.66
2024-05-09T00:54:55.276Z,97.45
2024-05-09T00:56:55.308Z,97.36
2024-05-09T00:57:55.279Z,97.56
2024-05-09T00:58:55.323Z,97.56
2024-05-09T00:59:55.257Z,97.66
2024-05-09T01:00:55.272Z,97.66
2024-05-09T01:01:55.378Z,97.71
2024-05-09T01:02:55.393Z,97.71
2024-05-09T01:03:55.448Z,97.81
2024-05-09T01:04:55.440Z,97.81
2024-05-09T01:05:55.260Z,97.81
2024-05-09T01:06:55.225Z,97.81
2024-05-09T01:07:55.272Z,97.91
2024-05-09T01:08:55.221Z,97.91
2024-05-09T01:09:55.244Z,97.91
2024-05-09T01:13:30.850Z,98.02
2024-05-09T01:14:30.910Z,98.12
2024-05-09T01:15:30.870Z,98.12
2024-05-09T01:16:30.828Z,98.12
2024-05-09T01:17:31.187Z,98.12
2024-05-09T01:18:30.926Z,98.02
2024-05-09T01:19:31.025Z,98.02
2024-05-09T01:20:39.942Z,98.02
2024-05-09T01:21:31.813Z,98.02
2024-05-09T01:22:30.796Z,98.02
2024-05-09T01:23:30.972Z,98.02
2024-05-09T01:24:30.824Z,97.96
2024-05-09T01:25:30.798Z,97.86
2024-05-09T01:26:30.897Z,97.86
2024-05-09T01:27:30.773Z,97.75
2024-05-09T01:28:30.775Z,97.75
2024-05-09T01:29:30.846Z,97.86
2024-05-09T01:30:34.576Z,97.86
2024-05-09T01:31:30.781Z,97.96
2024-05-09T01:32:30.920Z,97.96
2024-05-09T01:33:30.997Z,97.96
2024-05-09T01:34:30.732Z,98.06
2024-05-09T01:35:30.794Z,98.06
2024-05-09T01:36:30.711Z,98.16
2024-05-09T01:37:30.696Z,98.16
2024-05-09T01:38:31.052Z,98.16
2024-05-09T01:39:30.689Z,98.27
2024-05-09T01:40:37.340Z,98.16
2024-05-09T01:41:31.756Z,98.06
2024-05-09T01:42:30.686Z,98.16
2024-05-09T01:43:30.657Z,98.16
2024-05-09T01:44:30.754Z,98.21
2024-05-09T01:45:30.640Z,98.21
2024-05-09T01:46:30.657Z,98.32
2024-05-09T01:47:30.907Z,98.42
2024-05-09T01:48:30.696Z,98.62
2024-05-09T01:49:30.734Z,98.72
2024-05-09T01:50:37.817Z,98.83
2024-05-09T01:51:31.630Z,98.93
2024-05-09T01:52:30.601Z,99.04
2024-05-09T01:53:30.773Z,99.14
2024-05-09T01:54:30.646Z,99.14
2024-05-09T01:55:30.587Z,99.14
2024-05-09T01:56:30.829Z,99.04
2024-05-09T01:57:30.613Z,99.04
2024-05-09T01:58:30.586Z,99.04
2024-05-09T01:59:30.624Z,98.93
2024-05-09T02:00:38.183Z,98.83
2024-05-09T02:01:31.667Z,98.83
2024-05-09T02:02:31.616Z,98.83
2024-05-09T02:03:30.685Z,98.83
2024-05-09T02:04:30.790Z,98.72
2024-05-09T02:05:30.567Z,98.62
2024-05-09T02:06:30.531Z,98.52
2024-05-09T02:07:30.572Z,98.52
2024-05-09T02:08:30.622Z,98.42
2024-05-09T02:09:30.534Z,98.32
2024-05-09T02:10:32.931Z,98.32
2024-05-09T02:11:30.580Z,98.32
2024-05-09T02:12:30.605Z,98.32
2024-05-09T02:13:30.581Z,98.21
2024-05-09T02:14:30.593Z,98.21
2024-05-09T02:15:30.466Z,98.21
2024-05-09T02:16:30.476Z,98.25
2024-05-09T02:17:30.678Z,98.25
2024-05-09T02:18:30.521Z,98.36
2024-05-09T02:19:30.672Z,98.36
2024-05-09T02:20:35.929Z,98.36
2024-05-09T02:21:30.430Z,98.36
2024-05-09T02:22:30.453Z,98.36
2024-05-09T02:23:30.512Z,98.36
2024-05-09T02:24:30.432Z,98.46
2024-05-09T02:25:30.452Z,98.46
2024-05-09T02:26:30.440Z,98.46
2024-05-09T02:27:30.414Z,98.46
2024-05-09T02:28:30.403Z,98.46
2024-05-09T02:29:30.438Z,98.46
2024-05-09T02:30:38.565Z,98.36
2024-05-09T02:31:31.397Z,98.36
2024-05-09T02:32:30.589Z,98.36
2024-05-09T02:33:30.672Z,98.36
2024-05-09T02:34:30.432Z,98.36
2024-05-09T02:35:30.437Z,98.25
2024-05-09T02:36:30.341Z,98.25
2024-05-09T02:37:30.374Z,98.15
2024-05-09T02:38:30.518Z,98.05
2024-05-09T02:39:30.333Z,97.95
2024-05-09T02:40:36.724Z,97.95
2024-05-09T02:41:31.459Z,97.95
2024-05-09T02:42:30.311Z,97.99
2024-05-09T02:43:30.345Z,97.95
2024-05-09T02:44:30.366Z,97.99
2024-05-09T02:45:30.301Z,97.99
2024-05-09T02:46:30.293Z,97.99
2024-05-09T02:47:30.545Z,97.99
2024-05-09T02:48:30.373Z,97.99
2024-05-09T02:49:30.389Z,98.10
2024-05-09T02:50:37.336Z,98.10
2024-05-09T02:51:31.262Z,98.10
2024-05-09T02:52:30.248Z,98.20
2024-05-09T02:53:30.289Z,98.20
2024-05-09T02:54:30.272Z,98.20
2024-05-09T02:55:30.279Z,98.20
2024-05-09T02:56:30.322Z,98.20
2024-05-09T02:57:30.232Z,98.20
2024-05-09T02:58:30.224Z,98.10
2024-05-09T02:59:30.291Z,98.10
2024-05-09T03:00:38.078Z,98.10
2024-05-09T03:01:31.322Z,97.99
2024-05-09T03:02:30.262Z,97.99
2024-05-09T03:03:30.476Z,97.89
2024-05-09T03:04:30.268Z,97.83
2024-05-09T03:05:30.212Z,97.83
2024-05-09T03:06:30.184Z,97.83
2024-05-09T03:07:30.212Z,97.83
2024-05-09T03:08:30.197Z,97.83
2024-05-09T03:09:30.156Z,97.83
2024-05-09T03:10:35.659Z,97.83
2024-05-09T03:11:31.254Z,97.73
2024-05-09T03:12:30.165Z,97.73
2024-05-09T03:13:30.133Z,97.73
2024-05-09T03:14:30.263Z,97.73
2024-05-09T03:15:30.116Z,97.73
2024-05-09T03:16:30.111Z,97.73
2024-05-09T03:17:30.414Z,97.73
2024-05-09T03:18:30.196Z,97.83
2024-05-09T03:19:30.202Z,97.83
2024-05-09T03:20:34.340Z,97.83
2024-05-09T03:21:30.080Z,97.77
2024-05-09T03:22:30.075Z,97.88
2024-05-09T03:23:30.100Z,97.88
2024-05-09T03:24:30.086Z,97.88
2024-05-09T03:25:30.140Z,97.88
2024-05-09T03:26:30.113Z,97.98
2024-05-09T03:27:30.052Z,97.98
2024-05-09T03:28:30.042Z,98.08
2024-05-09T03:29:30.203Z,98.19
2024-05-09T03:30:39.098Z,98.19
2024-05-09T03:31:31.055Z,98.19
2024-05-09T03:32:30.148Z,98.19
2024-05-09T03:33:30.402Z,98.19
2024-05-09T03:34:30.032Z,98.08
2024-05-09T03:35:30.159Z,98.08
2024-05-09T03:36:30.014Z,97.98
2024-05-09T03:37:30.047Z,97.88
2024-05-09T03:38:30.017Z,97.88
2024-05-09T03:39:29.980Z,97.77
2024-05-09T03:40:31.119Z,97.77
2024-05-09T03:41:30.154Z,97.67
2024-05-09T03:42:29.987Z,97.67
2024-05-09T03:43:29.985Z,97.77
2024-05-09T03:44:30.095Z,97.82
2024-05-09T03:45:29.964Z,97.82
2024-05-09T03:46:29.954Z,97.82
2024-05-09T03:47:30.056Z,97.82
2024-05-09T03:48:30.031Z,97.92
2024-05-09T03:49:30.026Z,97.92
2024-05-09T03:50:34.108Z,97.92
2024-05-09T03:51:29.918Z,98.02
2024-05-09T03:52:29.928Z,98.02
2024-05-09T03:53:29.954Z,98.02
2024-05-09T03:54:29.920Z,98.13
2024-05-09T03:55:29.930Z,98.23
2024-05-09T03:56:29.984Z,98.33
2024-05-09T03:57:29.916Z,98.44
2024-05-09T03:58:29.898Z,98.44
2024-05-09T03:59:29.992Z,98.44
2024-05-09T04:00:37.358Z,98.54
2024-05-09T04:01:31.063Z,98.54
2024-05-09T04:02:29.945Z,98.54
2024-05-09T04:03:30.069Z,98.54
2024-05-09T04:04:29.945Z,98.54
2024-05-09T04:05:29.998Z,98.54
2024-05-09T04:06:29.857Z,98.54
2024-05-09T04:07:29.865Z,98.54
2024-05-09T04:08:29.960Z,98.65
2024-05-09T04:09:29.841Z,98.65
2024-05-09T04:10:33.415Z,98.75
2024-05-09T04:11:29.911Z,98.85
2024-05-09T04:12:29.872Z,98.85
2024-05-09T04:13:29.830Z,98.85
2024-05-09T04:14:30.042Z,98.96
2024-05-09T04:15:29.821Z,98.96
2024-05-09T04:16:29.818Z,98.96
2024-05-09T04:17:29.993Z,99.06
2024-05-09T04:18:29.860Z,99.06
2024-05-09T04:19:29.978Z,99.16
2024-05-09T04:20:37.535Z,99.16
2024-05-09T04:21:30.790Z,99.16
2024-05-09T04:22:29.784Z,99.16
2024-05-09T04:23:29.830Z,99.06
2024-05-09T04:24:29.761Z,99.06
2024-05-09T04:25:29.784Z,99.06
2024-05-09T04:26:29.890Z,99.06
2024-05-09T04:27:29.745Z,99.06
2024-05-09T04:28:29.751Z,99.06
2024-05-09T04:29:30.018Z,99.06
2024-05-09T04:30:37.461Z,99.06
2024-05-09T04:31:30.771Z,99.06
2024-05-09T04:32:29.801Z,99.06
2024-05-09T04:33:30.026Z,98.96
2024-05-09T04:34:29.824Z,98.96
2024-05-09T04:35:29.817Z,98.96
2024-05-09T04:36:29.730Z,98.96
2024-05-09T04:37:29.732Z,98.96
2024-05-09T04:38:29.713Z,98.96
2024-05-09T04:39:29.724Z,99.06
2024-05-09T04:40:34.163Z,99.06
2024-05-09T04:41:29.730Z,99.16
2024-05-09T04:42:29.690Z,99.26
2024-05-09T04:43:29.679Z,99.37
2024-05-09T04:44:29.700Z,99.47
2024-05-09T04:45:29.652Z,99.47
2024-05-09T04:46:29.642Z,99.47
2024-05-09T04:47:29.791Z,99.52
2024-05-09T04:48:29.870Z,99.52
2024-05-09T04:49:29.723Z,99.63
2024-05-09T04:50:36.181Z,99.63
2024-05-09T04:51:30.632Z,99.63
2024-05-09T04:52:29.609Z,99.63
2024-05-09T04:53:29.703Z,99.73
2024-05-09T04:54:34.190Z,99.63
2024-05-09T04:55:29.626Z,99.73
2024-05-09T04:56:29.614Z,99.84
2024-05-09T04:57:29.669Z,99.84
2024-05-09T04:58:29.584Z,99.84
2024-05-09T04:59:29.725Z,99.94
2024-05-09T05:00:35.914Z,99.94
2024-05-09T05:01:30.677Z,99.94
2024-05-09T05:02:29.680Z,99.99
2024-05-09T05:03:29.741Z,99.99
2024-05-09T05:04:29.596Z,99.99
2024-05-09T05:05:29.612Z,99.99
2024-05-09T05:06:29.551Z,99.99
2024-05-09T05:07:29.570Z,99.99
2024-05-09T05:08:29.555Z,99.99
2024-05-09T05:09:29.544Z,99.99
2024-05-09T05:10:35.511Z,99.99
2024-05-09T05:11:30.682Z,99.99
2024-05-09T05:12:29.665Z,99.99
2024-05-09T05:13:29.542Z,99.99
2024-05-09T05:14:29.606Z,99.99
2024-05-09T05:15:29.524Z,99.99
2024-05-09T05:16:29.502Z,99.99
2024-05-09T05:17:29.669Z,99.99
2024-05-09T05:18:29.740Z,99.99
2024-05-09T05:19:29.681Z,99.99
2024-05-09T05:20:33.580Z,99.99
2024-05-09T05:21:29.495Z,99.99
2024-05-09T05:22:29.494Z,99.99
2024-05-09T05:23:29.564Z,99.99
2024-05-09T05:24:29.459Z,99.99
2024-05-09T05:25:29.475Z,99.99
2024-05-09T05:26:29.494Z,99.99
2024-05-09T05:27:29.455Z,99.99
2024-05-09T05:28:29.425Z,99.99
2024-05-09T05:29:29.457Z,99.99
2024-05-09T05:30:34.434Z,99.99
2024-05-09T05:31:29.482Z,99.99
2024-05-09T05:32:29.551Z,99.99
2024-05-09T05:33:29.628Z,99.99
2024-05-09T05:34:29.390Z,99.99
2024-05-09T05:35:29.535Z,99.99
2024-05-09T05:36:29.395Z,99.99
2024-05-09T05:37:29.412Z,99.99
2024-05-09T05:38:29.418Z,99.99
2024-05-09T05:39:29.385Z,99.99
2024-05-09T05:40:36.157Z,99.99
2024-05-09T05:41:30.418Z,99.99
2024-05-09T05:42:29.365Z,99.99
2024-05-09T05:43:29.353Z,99.99
2024-05-09T05:44:29.438Z,99.99
2024-05-09T05:45:29.367Z,99.99
2024-05-09T05:46:29.317Z,99.99
2024-05-09T05:47:29.452Z,99.99
2024-05-09T05:48:29.429Z,99.99
2024-05-09T05:49:29.596Z,99.99
2024-05-09T05:50:35.483Z,99.99
2024-05-09T05:51:30.308Z,99.99
2024-05-09T05:52:29.284Z,99.99
2024-05-09T05:53:29.325Z,99.99
2024-05-09T05:54:29.268Z,99.99
2024-05-09T05:55:29.284Z,99.99
2024-05-09T05:56:29.344Z,99.99
2024-05-09T05:57:29.258Z,99.99
2024-05-09T05:58:29.250Z,99.99
2024-05-09T05:59:29.360Z,99.99
2024-05-09T06:00:35.522Z,99.99
2024-05-09T06:01:30.288Z,99.99
2024-05-09T06:02:29.329Z,99.99
2024-05-09T06:03:29.318Z,99.99
2024-05-09T06:04:29.382Z,99.99
2024-05-09T06:05:29.286Z,99.99
2024-05-09T06:06:29.208Z,99.99
2024-05-09T06:07:29.206Z,99.99
2024-05-09T06:08:30.445Z,99.99
2024-05-09T06:09:29.180Z,99.99
2024-05-09T06:10:37.491Z,99.99
2024-05-09T06:11:30.281Z,99.99
2024-05-09T06:12:29.327Z,99.99
2024-05-09T06:13:29.197Z,99.99
2024-05-09T06:14:29.307Z,99.99
2024-05-09T06:15:29.139Z,99.99
2024-05-09T06:16:29.143Z,99.99
2024-05-09T06:17:29.272Z,99.99
2024-05-09T06:18:29.437Z,99.99
2024-05-09T06:19:29.228Z,99.99
2024-05-09T06:20:35.743Z,99.99
2024-05-09T06:21:30.143Z,99.99
2024-05-09T06:22:29.163Z,99.99
2024-05-09T06:23:29.141Z,99.99
2024-05-09T06:24:29.090Z,99.99
2024-05-09T06:25:29.129Z,99.99
2024-05-09T06:26:29.221Z,99.99
2024-05-09T06:27:29.092Z,99.99
2024-05-09T06:28:29.064Z,99.99
2024-05-09T06:29:29.173Z,99.99
2024-05-09T06:30:37.574Z,99.99
2024-05-09T06:31:30.080Z,99.99
2024-05-09T06:32:29.313Z,99.99
2024-05-09T06:33:29.330Z,99.99
2024-05-09T06:34:29.112Z,99.99
2024-05-09T06:35:29.136Z,99.99
2024-05-09T06:36:29.017Z,99.99
2024-05-09T06:37:29.032Z,99.99
2024-05-09T06:38:29.084Z,99.99
2024-05-09T06:39:29.008Z,99.99
2024-05-09T06:40:36.835Z,99.99
2024-05-09T06:41:30.119Z,99.99
2024-05-09T06:42:28.985Z,99.99
2024-05-09T06:43:29.021Z,99.99
2024-05-09T06:44:29.036Z,99.99
2024-05-09T06:45:28.962Z,99.99
2024-05-09T06:46:28.976Z,99.99
2024-05-09T06:47:29.149Z,99.99
2024-05-09T06:48:29.054Z,99.99
2024-05-09T06:49:29.134Z,99.99
2024-05-09T06:50:36.808Z,99.99
2024-05-09T06:51:29.948Z,99.99
2024-05-09T06:52:28.928Z,99.99
2024-05-09T06:53:28.999Z,99.99
2024-05-09T06:54:28.921Z,99.99
2024-05-09T06:55:28.990Z,99.99
2024-05-09T06:56:29.018Z,99.99
2024-05-09T06:57:28.917Z,99.99
2024-05-09T06:58:28.894Z,99.99
2024-05-09T06:59:29.251Z,99.99
2024-05-09T07:00:35.787Z,99.99
2024-05-09T07:01:29.976Z,99.99
2024-05-09T07:02:29.057Z,99.99
2024-05-09T07:03:29.000Z,99.99
2024-05-09T07:04:29.042Z,99.99
2024-05-09T07:05:28.957Z,99.99
2024-05-09T07:06:28.847Z,99.99
2024-05-09T07:07:28.890Z,99.99
2024-05-09T07:08:28.857Z,99.99
2024-05-09T07:09:28.826Z,99.99
2024-05-09T07:10:34.353Z,99.99
2024-05-09T07:11:28.869Z,99.99
2024-05-09T07:12:28.985Z,99.99
2024-05-09T07:13:28.853Z,99.99
2024-05-09T07:14:28.919Z,99.99
2024-05-09T07:15:28.819Z,99.99
2024-05-09T07:16:28.782Z,99.99
2024-05-09T07:17:28.932Z,99.99
2024-05-09T07:18:29.007Z,99.99
2024-05-09T07:19:28.913Z,99.99
2024-05-09T07:20:34.425Z,99.99
2024-05-09T07:21:28.757Z,99.99
2024-05-09T07:22:28.739Z,99.99
2024-05-09T07:23:28.803Z,99.99
2024-05-09T07:24:28.723Z,99.99
2024-05-09T07:25:29.019Z,99.99
2024-05-09T07:26:28.796Z,99.99
2024-05-09T07:27:28.715Z,99.99
2024-05-09T07:28:28.704Z,98.70
2024-05-09T07:29:28.833Z,98.60
2024-05-09T07:30:33.465Z,99.01
2024-05-09T07:31:28.711Z,99.21
2024-05-09T07:32:28.985Z,99.27
2024-05-09T07:33:29.014Z,99.27
2024-05-09T07:34:28.755Z,99.27
2024-05-09T07:35:28.953Z,98.35
2024-05-09T07:36:28.683Z,97.94
2024-05-09T07:37:28.666Z,97.89
2024-05-09T07:38:28.697Z,97.99
2024-05-09T07:39:28.640Z,98.20
2024-05-09T07:40:35.148Z,96.36
2024-05-09T07:41:29.713Z,94.62
2024-05-09T07:42:28.624Z,94.78
2024-05-09T07:43:28.628Z,95.50
2024-05-09T07:44:28.752Z,96.11
2024-05-09T07:45:45.048Z,96.27
2024-05-09T07:47:36.949Z,96.47
2024-05-09T07:48:57.120Z,96.47
2024-05-09T07:50:01.348Z,96.37
2024-05-09T07:53:32.506Z,95.51
2024-05-09T07:53:40.119Z,95.10
2024-05-09T07:54:29.811Z,94.49
2024-05-09T07:55:28.776Z,94.18
2024-05-09T07:56:28.850Z,93.88
2024-05-09T07:57:28.641Z,94.49
2024-05-09T07:58:28.576Z,92.96
2024-05-09T07:59:28.566Z,92.71
2024-05-09T08:00:31.543Z,92.20
2024-05-09T08:01:28.824Z,90.36
2024-05-09T08:02:28.791Z,89.65
2024-05-09T08:03:28.847Z,87.37
2024-05-09T08:04:28.558Z,87.06
2024-05-09T08:05:28.746Z,89.51
2024-05-09T08:06:28.560Z,90.94
2024-05-09T08:07:28.488Z,91.71
2024-05-09T08:08:28.514Z,92.42
2024-05-09T08:09:28.467Z,93.03
2024-05-09T08:10:29.245Z,93.54
2024-05-09T08:11:28.461Z,93.33
2024-05-09T08:12:28.508Z,86.00
2024-05-09T08:13:28.440Z,86.41
2024-05-09T08:14:28.437Z,88.81
2024-05-09T08:15:28.642Z,90.34
2024-05-09T08:16:28.521Z,91.36
2024-05-09T08:17:28.569Z,92.27
2024-05-09T08:18:28.673Z,93.40
2024-05-09T08:19:28.453Z,93.09
2024-05-09T08:20:33.467Z,94.11
2024-05-09T08:21:28.445Z,94.21
2024-05-09T08:22:28.397Z,86.27
2024-05-09T08:23:28.379Z,84.94
2024-05-09T08:24:28.446Z,84.12
2024-05-09T08:25:28.446Z,83.78
2024-05-09T08:26:28.367Z,86.13
2024-05-09T08:27:28.449Z,87.75
2024-05-09T08:28:28.409Z,85.41
2024-05-09T08:29:28.346Z,87.00
2024-05-09T08:30:33.843Z,88.63
2024-05-09T08:31:29.685Z,87.41
2024-05-09T08:32:28.399Z,87.00
2024-05-09T08:33:28.596Z,85.68
2024-05-09T08:34:28.445Z,82.82
2024-05-09T08:35:28.330Z,83.60
2024-05-09T08:36:28.383Z,83.81
2024-05-09T08:37:32.822Z,85.94
2024-05-09T08:38:29.323Z,85.84
2024-05-09T08:39:28.317Z,87.06
2024-05-09T08:40:34.553Z,87.06
2024-05-09T08:41:29.349Z,86.45
2024-05-09T08:42:28.285Z,86.86
2024-05-09T08:43:28.339Z,88.18
2024-05-09T08:44:28.271Z,78.82
2024-05-09T08:45:28.284Z,78.62
2024-05-09T08:46:28.450Z,78.99
2024-05-09T08:47:28.432Z,81.02
2024-05-09T08:48:28.364Z,81.93
2024-05-09T08:49:28.369Z,80.62
2024-05-09T08:50:35.953Z,77.97
2024-05-09T08:51:29.322Z,81.63
2024-05-09T08:52:28.240Z,83.32
2024-05-09T08:53:28.246Z,84.64
2024-05-09T08:54:28.315Z,83.93
2024-05-09T08:55:28.245Z,82.00
2024-05-09T08:56:28.243Z,79.66
2024-05-09T08:57:28.245Z,80.92
2024-05-09T08:58:28.207Z,81.19
2024-05-09T08:59:28.213Z,78.78
2024-05-09T09:00:35.870Z,81.59
2024-05-09T09:01:29.232Z,83.42
2024-05-09T09:02:28.432Z,83.93
2024-05-09T09:03:28.316Z,78.85
2024-05-09T09:04:28.268Z,77.12
2024-05-09T09:05:28.327Z,76.82
2024-05-09T09:06:28.225Z,74.95
2024-05-09T09:07:28.284Z,80.64
2024-05-09T09:08:28.166Z,81.62
2024-05-09T09:09:28.173Z,82.64
2024-05-09T09:10:32.081Z,82.03
2024-05-09T09:11:28.173Z,82.03
2024-05-09T09:12:28.157Z,83.65
2024-05-09T09:13:28.131Z,82.73
2024-05-09T09:14:28.113Z,82.43
2024-05-09T09:15:28.189Z,78.47
2024-05-09T09:16:28.147Z,73.09
2024-05-09T09:17:28.160Z,75.52
2024-05-09T09:18:28.583Z,76.75
2024-05-09T09:19:28.215Z,78.23
2024-05-09T09:20:35.720Z,80.16
2024-05-09T09:21:29.129Z,81.68
2024-05-09T09:22:28.067Z,75.19
2024-05-09T09:23:28.066Z,76.00
2024-05-09T09:24:28.143Z,78.74
2024-05-09T09:25:28.063Z,80.46
2024-05-09T09:26:28.103Z,68.39
2024-05-09T09:27:28.051Z,66.43
2024-05-09T09:28:28.040Z,72.11
2024-05-09T09:29:28.049Z,74.54
2024-05-09T09:30:36.152Z,75.96
2024-05-09T09:31:29.043Z,78.36
2024-05-09T09:32:28.160Z,77.55
2024-05-09T09:33:28.093Z,72.52
2024-05-09T09:34:28.233Z,67.92
2024-05-09T09:35:28.002Z,71.77
2024-05-09T09:36:27.996Z,70.65
2024-05-09T09:37:27.982Z,66.70
2024-05-09T09:38:27.971Z,64.37
2024-05-09T09:39:28.019Z,62.92
2024-05-09T09:40:32.163Z,64.64
2024-05-09T09:41:28.010Z,67.45
2024-05-09T09:42:28.080Z,64.01
2024-05-09T09:43:27.990Z,62.49
2024-05-09T09:44:27.953Z,63.20
2024-05-09T09:45:27.990Z,65.90
2024-05-09T09:46:27.986Z,66.71
2024-05-09T09:47:27.998Z,62.26
2024-05-09T09:48:27.992Z,65.59
2024-05-09T09:49:27.932Z,67.82
2024-05-09T09:50:34.032Z,70.56
2024-05-09T09:51:27.994Z,70.56
2024-05-09T09:52:27.970Z,71.37
2024-05-09T09:53:27.908Z,70.25
2024-05-09T09:54:27.963Z,69.68
2024-05-09T09:55:27.892Z,70.59
2024-05-09T09:56:27.874Z,70.69
2024-05-09T09:57:27.904Z,70.79
2024-05-09T09:58:27.886Z,69.98
2024-05-09T09:59:27.872Z,62.49
2024-05-09T10:00:32.945Z,66.64
2024-05-09T10:01:27.990Z,70.36
2024-05-09T10:02:28.063Z,63.20
2024-05-09T10:03:28.039Z,66.61
2024-05-09T10:04:27.917Z,69.65
2024-05-09T10:05:28.223Z,69.34
2024-05-09T10:06:27.853Z,68.94
2024-05-09T10:07:27.798Z,69.95
2024-05-09T10:08:27.807Z,71.88
2024-05-09T10:09:27.847Z,71.67
2024-05-09T10:10:32.398Z,71.67
2024-05-09T10:11:27.960Z,71.50
2024-05-09T10:12:27.802Z,71.70
2024-05-09T10:13:27.801Z,72.11
2024-05-09T10:14:27.769Z,71.60
2024-05-09T10:15:27.856Z,71.40
2024-05-09T10:16:27.809Z,72.52
2024-05-09T10:17:27.875Z,71.50
2024-05-09T10:18:30.270Z,68.66
2024-05-09T10:19:27.854Z,70.49
2024-05-09T10:20:32.271Z,70.39
2024-05-09T10:21:27.813Z,71.80
2024-05-09T10:22:27.784Z,71.91
2024-05-09T10:23:27.756Z,70.79
2024-05-09T10:24:27.761Z,68.56
2024-05-09T10:25:27.739Z,70.69
2024-05-09T10:26:27.698Z,74.04
2024-05-09T10:27:27.724Z,74.95
2024-05-09T10:28:27.711Z,74.13
2024-05-09T10:29:27.691Z,75.96
2024-05-09T10:30:34.055Z,74.74
2024-05-09T10:31:28.695Z,72.58
2024-05-09T10:32:27.728Z,73.59
2024-05-09T10:33:27.954Z,74.60
2024-05-09T10:34:27.825Z,73.90
2024-05-09T10:35:27.679Z,63.37
2024-05-09T10:36:27.722Z,61.55
2024-05-09T10:37:27.676Z,61.95
2024-05-09T10:38:27.631Z,61.41
2024-05-09T10:39:27.646Z,66.27
2024-05-09T10:40:31.359Z,70.12
2024-05-09T10:41:27.668Z,70.29
2024-05-09T10:42:27.630Z,72.11
2024-05-09T10:43:27.635Z,69.98
2024-05-09T10:44:27.595Z,67.35
2024-05-09T10:45:27.630Z,68.37
2024-05-09T10:46:27.658Z,67.25
2024-05-09T10:47:27.689Z,69.78
2024-05-09T10:48:27.825Z,70.25
2024-05-09T10:49:27.638Z,71.67
2024-05-09T10:50:31.836Z,70.46
2024-05-09T10:51:27.617Z,71.77
2024-05-09T10:52:27.597Z,72.28
2024-05-09T10:53:27.645Z,67.52
2024-05-09T10:54:27.599Z,67.52
2024-05-09T10:55:27.704Z,69.34
2024-05-09T10:56:27.531Z,61.96
2024-05-09T10:57:27.590Z,63.28
2024-05-09T10:58:27.527Z,63.28
2024-05-09T10:59:27.518Z,61.76
2024-05-09T11:00:33.387Z,59.64
2024-05-09T11:01:28.782Z,60.72
2024-05-09T11:02:27.692Z,60.82
2024-05-09T11:03:27.624Z,66.18
2024-05-09T11:04:27.547Z,67.60
2024-05-09T11:05:27.714Z,66.69
2024-05-09T11:06:27.487Z,67.09
2024-05-09T11:07:27.482Z,70.02
2024-05-09T11:08:27.492Z,66.48
2024-05-09T11:09:27.466Z,65.37
2024-05-09T11:10:33.606Z,62.64
2024-05-09T11:11:27.478Z,66.38
2024-05-09T11:12:27.632Z,69.21
2024-05-09T11:13:27.414Z,62.95
2024-05-09T11:14:27.441Z,64.97
2024-05-09T11:15:27.452Z,66.69
2024-05-09T11:16:27.435Z,63.25
2024-05-09T11:17:28.667Z,62.92
2024-05-09T11:18:29.778Z,65.44
2024-05-09T11:19:27.511Z,68.07
2024-05-09T11:20:29.929Z,67.66
2024-05-09T11:21:27.377Z,68.98
2024-05-09T11:22:27.450Z,70.59
2024-05-09T11:23:27.431Z,71.20
2024-05-09T11:24:27.352Z,69.48
2024-05-09T11:25:27.353Z,68.77
2024-05-09T11:26:27.354Z,68.77
2024-05-09T11:27:27.331Z,65.14
2024-05-09T11:28:27.378Z,62.82
2024-05-09T11:29:27.359Z,63.82
2024-05-09T11:30:31.843Z,65.44
2024-05-09T11:31:27.666Z,63.70
2024-05-09T11:32:27.424Z,60.06
2024-05-09T11:33:27.322Z,62.08
2024-05-09T11:34:27.415Z,59.15
2024-05-09T11:35:27.306Z,59.05
2024-05-09T11:36:27.345Z,58.34
2024-05-09T11:37:27.363Z,61.24
2024-05-09T11:38:27.296Z,65.38
2024-05-09T11:39:27.403Z,61.44
2024-05-09T11:40:32.396Z,61.95
2024-05-09T11:41:27.285Z,65.18
2024-05-09T11:42:27.260Z,63.96
2024-05-09T11:43:27.388Z,65.88
2024-05-09T11:44:27.284Z,65.68
2024-05-09T11:45:27.241Z,66.69
2024-05-09T11:46:27.347Z,68.01
2024-05-09T11:47:27.315Z,65.58
2024-05-09T11:48:27.754Z,61.75
2024-05-09T11:49:27.422Z,63.76
2024-05-09T11:50:32.479Z,66.69
2024-05-09T11:51:28.270Z,61.95
2024-05-09T11:52:27.222Z,58.62
2024-05-09T11:53:27.220Z,60.33
2024-05-09T11:54:27.239Z,61.72
2024-05-09T11:55:28.383Z,64.84
2024-05-09T11:56:27.169Z,63.03
2024-05-09T11:57:27.164Z,65.55
2024-05-09T11:58:27.214Z,64.14
2024-05-09T11:59:27.171Z,66.25
2024-05-09T12:00:34.117Z,67.47
2024-05-09T12:01:28.426Z,65.55
2024-05-09T12:02:27.286Z,65.55
2024-05-09T12:03:27.177Z,66.66
2024-05-09T12:04:27.219Z,65.35
2024-05-09T12:05:27.376Z,60.61
2024-05-09T12:06:27.140Z,65.95
2024-05-09T12:07:27.165Z,68.37
2024-05-09T12:08:27.108Z,66.46
2024-05-09T12:09:27.095Z,67.36
2024-05-09T12:10:33.104Z,66.86
2024-05-09T12:11:28.175Z,63.64
2024-05-09T12:12:27.087Z,63.43
2024-05-09T12:13:27.175Z,63.84
2024-05-09T12:14:27.075Z,65.75
2024-05-09T12:15:27.081Z,63.13
2024-05-09T12:16:27.182Z,63.43
2024-05-09T12:17:27.154Z,60.10
2024-05-09T12:18:27.092Z,63.53
2024-05-09T12:19:27.090Z,62.02
2024-05-09T12:20:35.285Z,58.09
2024-05-09T12:21:28.119Z,58.26
2024-05-09T12:22:27.040Z,61.99
2024-05-09T12:23:27.031Z,62.19
2024-05-09T12:24:27.010Z,63.90
2024-05-09T12:25:27.005Z,65.32
2024-05-09T12:26:27.000Z,61.79
2024-05-09T12:27:26.989Z,57.35
2024-05-09T12:28:27.015Z,57.05
2024-05-09T12:29:27.014Z,60.17
2024-05-09T12:30:35.499Z,62.60
2024-05-09T12:31:28.078Z,61.96
2024-05-09T12:32:27.170Z,61.36
2024-05-09T12:33:27.138Z,64.07
2024-05-09T12:34:27.032Z,63.57
2024-05-09T12:35:26.960Z,63.07
2024-05-09T12:36:26.948Z,64.15
2024-05-09T12:37:26.970Z,63.34
2024-05-09T12:38:26.931Z,59.92
2024-05-09T12:39:26.935Z,60.93
2024-05-09T12:40:35.152Z,62.64
2024-05-09T12:41:27.965Z,63.42
2024-05-09T12:42:28.602Z,64.72
2024-05-09T12:43:27.055Z,62.21
2024-05-09T12:44:26.900Z,63.71
2024-05-09T12:45:26.898Z,60.80
2024-05-09T12:46:26.998Z,57.28
2024-05-09T12:47:27.021Z,60.09
2024-05-09T12:48:26.943Z,57.07
2024-05-09T12:49:27.045Z,60.77
2024-05-09T12:50:32.467Z,62.68
2024-05-09T12:51:26.854Z,62.48
2024-05-09T12:52:26.859Z,61.27
2024-05-09T12:53:26.855Z,60.33
2024-05-09T12:54:26.836Z,61.34
2024-05-09T12:55:28.112Z,61.24
2024-05-09T12:56:26.826Z,60.44
2024-05-09T12:57:26.822Z,60.44
2024-05-09T12:58:26.899Z,58.12
2024-05-09T12:59:26.829Z,55.91